sensor_id;sensor_type;location;lat;lon;timestamp;temperature;humidity
29575;DHT22;16507;51.046;6.406;2023-06-01T00:01:41;15.40;99.90
29575;DHT22;16507;51.046;6.406;2023-06-01T00:04:07;15.30;99.90
29575;DHT22;16507;51.046;6.406;2023-06-01T00:06:33;15.30;99.90
29575;DHT22;16507;51.046;6.406;2023-06-01T00:08:59;15.30;99.90
29575;DHT22;16507;51.046;6.406;2023-06-01T00:11:26;15.30;99.90
29575;DHT22;16507;51.046;6.406;2023-06-01T00:13:52;15.20;99.90
29575;DHT22;16507;51.046;6.406;2023-06-01T00:16:18;15.20;99.90
29575;DHT22;16507;51.046;6.406;2023-06-01T00:18:44;15.10;99.90
29575;DHT22;16507;51.046;6.406;2023-06-01T00:21:10;15.10;99.90
29575;DHT22;16507;51.046;6.406;2023-06-01T00:23:37;15.00;99.90
29575;DHT22;16507;51.046;6.406;2023-06-01T00:26:06;15.00;99.90
29575;DHT22;16507;51.046;6.406;2023-06-01T00:28:32;15.00;99.90
29575;DHT22;16507;51.046;6.406;2023-06-01T00:30:57;14.90;99.90
29575;DHT22;16507;51.046;6.406;2023-06-01T00:33:23;14.80;99.90
29575;DHT22;16507;51.046;6.406;2023-06-01T00:35:49;14.90;99.90
29575;DHT22;16507;51.046;6.406;2023-06-01T00:38:15;14.90;99.90
29575;DHT22;16507;51.046;6.406;2023-06-01T00:40:41;14.90;99.90
29575;DHT22;16507;51.046;6.406;2023-06-01T00:43:08;14.80;99.90
29575;DHT22;16507;51.046;6.406;2023-06-01T00:45:34;14.90;99.90
29575;DHT22;16507;51.046;6.406;2023-06-01T00:47:59;14.80;99.90
29575;DHT22;16507;51.046;6.406;2023-06-01T00:50:25;14.70;99.90
29575;DHT22;16507;51.046;6.406;2023-06-01T00:52:51;14.70;99.90
29575;DHT22;16507;51.046;6.406;2023-06-01T00:55:19;14.60;99.90
29575;DHT22;16507;51.046;6.406;2023-06-01T00:57:46;14.60;99.90
29575;DHT22;16507;51.046;6.406;2023-06-01T01:00:14;14.60;99.90
29575;DHT22;16507;51.046;6.406;2023-06-01T01:02:40;14.50;99.90
29575;DHT22;16507;51.046;6.406;2023-06-01T01:05:07;14.40;99.90
29575;DHT22;16507;51.046;6.406;2023-06-01T01:13:13;14.30;99.90
29575;DHT22;16507;51.046;6.406;2023-06-01T01:18:11;14.20;99.90
29575;DHT22;16507;51.046;6.406;2023-06-01T01:20:41;14.20;99.90
29575;DHT22;16507;51.046;6.406;2023-06-01T01:26:19;14.00;99.90
29575;DHT22;16507;51.046;6.406;2023-06-01T01:29:06;13.90;99.90
29575;DHT22;16507;51.046;6.406;2023-06-01T01:31:32;13.80;99.90
29575;DHT22;16507;51.046;6.406;2023-06-01T01:33:59;13.70;99.90
29575;DHT22;16507;51.046;6.406;2023-06-01T01:36:27;13.60;99.90
29575;DHT22;16507;51.046;6.406;2023-06-01T01:38:54;13.50;99.90
29575;DHT22;16507;51.046;6.406;2023-06-01T01:41:19;13.40;99.90
29575;DHT22;16507;51.046;6.406;2023-06-01T01:43:46;13.20;99.90
29575;DHT22;16507;51.046;6.406;2023-06-01T01:46:22;13.20;99.90
29575;DHT22;16507;51.046;6.406;2023-06-01T01:49:01;13.10;99.90
29575;DHT22;16507;51.046;6.406;2023-06-01T01:51:49;13.00;99.90
29575;DHT22;16507;51.046;6.406;2023-06-01T01:54:15;12.90;99.90
29575;DHT22;16507;51.046;6.406;2023-06-01T01:56:42;12.80;99.90
29575;DHT22;16507;51.046;6.406;2023-06-01T01:59:09;12.70;99.90
29575;DHT22;16507;51.046;6.406;2023-06-01T02:01:36;12.70;99.90
29575;DHT22;16507;51.046;6.406;2023-06-01T02:04:03;12.70;99.90
29575;DHT22;16507;51.046;6.406;2023-06-01T02:06:32;12.60;99.90
29575;DHT22;16507;51.046;6.406;2023-06-01T02:08:58;12.60;99.90
29575;DHT22;16507;51.046;6.406;2023-06-01T02:11:23;12.60;99.90
29575;DHT22;16507;51.046;6.406;2023-06-01T02:13:49;12.50;99.90
29575;DHT22;16507;51.046;6.406;2023-06-01T02:16:15;12.50;99.90
29575;DHT22;16507;51.046;6.406;2023-06-01T02:18:43;12.50;99.90
29575;DHT22;16507;51.046;6.406;2023-06-01T02:21:11;12.50;99.90
29575;DHT22;16507;51.046;6.406;2023-06-01T02:23:37;12.40;99.90
29575;DHT22;16507;51.046;6.406;2023-06-01T02:26:05;12.40;99.90
29575;DHT22;16507;51.046;6.406;2023-06-01T02:28:31;12.30;99.90
29575;DHT22;16507;51.046;6.406;2023-06-01T02:30:56;12.20;99.90
29575;DHT22;16507;51.046;6.406;2023-06-01T02:33:22;12.20;99.90
29575;DHT22;16507;51.046;6.406;2023-06-01T02:35:50;12.10;99.90
29575;DHT22;16507;51.046;6.406;2023-06-01T02:38:16;12.00;99.90
29575;DHT22;16507;51.046;6.406;2023-06-01T02:40:42;12.00;99.90
29575;DHT22;16507;51.046;6.406;2023-06-01T02:43:08;12.00;99.90
29575;DHT22;16507;51.046;6.406;2023-06-01T02:45:33;11.90;99.90
29575;DHT22;16507;51.046;6.406;2023-06-01T02:47:59;11.90;99.90
29575;DHT22;16507;51.046;6.406;2023-06-01T02:50:25;11.90;99.90
29575;DHT22;16507;51.046;6.406;2023-06-01T02:52:51;11.80;99.90
29575;DHT22;16507;51.046;6.406;2023-06-01T02:55:17;11.80;99.90
29575;DHT22;16507;51.046;6.406;2023-06-01T02:57:42;11.70;99.90
29575;DHT22;16507;51.046;6.406;2023-06-01T03:00:09;11.60;99.90
29575;DHT22;16507;51.046;6.406;2023-06-01T03:02:48;11.60;99.90
29575;DHT22;16507;51.046;6.406;2023-06-01T03:05:14;11.60;99.90
29575;DHT22;16507;51.046;6.406;2023-06-01T03:07:40;11.50;99.90
29575;DHT22;16507;51.046;6.406;2023-06-01T03:10:07;11.50;99.90
29575;DHT22;16507;51.046;6.406;2023-06-01T03:12:33;11.40;99.90
29575;DHT22;16507;51.046;6.406;2023-06-01T03:14:59;11.40;99.90
29575;DHT22;16507;51.046;6.406;2023-06-01T03:17:25;11.40;99.90
29575;DHT22;16507;51.046;6.406;2023-06-01T03:19:51;11.30;99.90
29575;DHT22;16507;51.046;6.406;2023-06-01T03:22:16;11.30;99.90
29575;DHT22;16507;51.046;6.406;2023-06-01T03:24:42;11.30;99.90
29575;DHT22;16507;51.046;6.406;2023-06-01T03:27:09;11.20;99.90
29575;DHT22;16507;51.046;6.406;2023-06-01T03:29:36;11.20;99.90
29575;DHT22;16507;51.046;6.406;2023-06-01T03:32:02;11.20;99.90
29575;DHT22;16507;51.046;6.406;2023-06-01T03:34:28;11.10;99.90
29575;DHT22;16507;51.046;6.406;2023-06-01T03:36:55;11.10;99.90
29575;DHT22;16507;51.046;6.406;2023-06-01T03:39:21;11.10;99.90
29575;DHT22;16507;51.046;6.406;2023-06-01T03:41:47;11.00;99.90
29575;DHT22;16507;51.046;6.406;2023-06-01T03:44:13;11.00;99.90
29575;DHT22;16507;51.046;6.406;2023-06-01T03:46:39;10.90;99.90
29575;DHT22;16507;51.046;6.406;2023-06-01T03:49:05;11.00;99.90
29575;DHT22;16507;51.046;6.406;2023-06-01T03:51:31;10.90;99.90
29575;DHT22;16507;51.046;6.406;2023-06-01T03:53:57;10.90;99.90
29575;DHT22;16507;51.046;6.406;2023-06-01T03:56:22;10.90;99.90
29575;DHT22;16507;51.046;6.406;2023-06-01T03:58:49;10.90;99.90
29575;DHT22;16507;51.046;6.406;2023-06-01T04:01:15;10.90;99.90
29575;DHT22;16507;51.046;6.406;2023-06-01T04:03:45;10.90;99.90
29575;DHT22;16507;51.046;6.406;2023-06-01T04:06:11;10.90;99.90
29575;DHT22;16507;51.046;6.406;2023-06-01T04:08:45;10.90;99.90
29575;DHT22;16507;51.046;6.406;2023-06-01T04:11:18;10.90;99.90
29575;DHT22;16507;51.046;6.406;2023-06-01T04:13:44;10.90;99.90
29575;DHT22;16507;51.046;6.406;2023-06-01T04:16:10;10.90;99.90
29575;DHT22;16507;51.046;6.406;2023-06-01T04:18:36;10.90;99.90
29575;DHT22;16507;51.046;6.406;2023-06-01T04:21:02;10.90;99.90
29575;DHT22;16507;51.046;6.406;2023-06-01T04:23:28;10.80;99.90
29575;DHT22;16507;51.046;6.406;2023-06-01T04:25:53;10.90;99.90
29575;DHT22;16507;51.046;6.406;2023-06-01T04:28:24;10.90;99.90
29575;DHT22;16507;51.046;6.406;2023-06-01T04:30:50;10.90;99.90
29575;DHT22;16507;51.046;6.406;2023-06-01T04:33:17;10.90;99.90
29575;DHT22;16507;51.046;6.406;2023-06-01T04:35:43;10.90;99.90
29575;DHT22;16507;51.046;6.406;2023-06-01T04:38:09;10.90;99.90
29575;DHT22;16507;51.046;6.406;2023-06-01T04:40:35;10.90;99.90
29575;DHT22;16507;51.046;6.406;2023-06-01T04:43:01;10.90;99.90
29575;DHT22;16507;51.046;6.406;2023-06-01T04:45:28;10.90;99.90
29575;DHT22;16507;51.046;6.406;2023-06-01T04:47:59;10.90;99.90
29575;DHT22;16507;51.046;6.406;2023-06-01T04:50:24;11.00;99.90
29575;DHT22;16507;51.046;6.406;2023-06-01T04:52:54;11.00;99.90
29575;DHT22;16507;51.046;6.406;2023-06-01T04:55:20;10.90;99.90
29575;DHT22;16507;51.046;6.406;2023-06-01T04:57:46;10.80;99.90
29575;DHT22;16507;51.046;6.406;2023-06-01T05:00:13;10.80;99.90
29575;DHT22;16507;51.046;6.406;2023-06-01T05:02:43;10.70;99.90
29575;DHT22;16507;51.046;6.406;2023-06-01T05:05:11;10.70;99.90
29575;DHT22;16507;51.046;6.406;2023-06-01T05:07:38;10.70;99.90
29575;DHT22;16507;51.046;6.406;2023-06-01T05:10:05;10.70;99.90
29575;DHT22;16507;51.046;6.406;2023-06-01T05:12:32;10.70;99.90
29575;DHT22;16507;51.046;6.406;2023-06-01T05:14:59;10.60;99.90
29575;DHT22;16507;51.046;6.406;2023-06-01T05:17:25;10.60;99.90
29575;DHT22;16507;51.046;6.406;2023-06-01T05:19:50;10.50;99.90
29575;DHT22;16507;51.046;6.406;2023-06-01T05:22:16;10.60;99.90
29575;DHT22;16507;51.046;6.406;2023-06-01T05:24:42;10.60;99.90
29575;DHT22;16507;51.046;6.406;2023-06-01T05:27:08;10.70;99.90
29575;DHT22;16507;51.046;6.406;2023-06-01T05:29:33;10.70;99.90
29575;DHT22;16507;51.046;6.406;2023-06-01T05:31:59;10.80;99.90
29575;DHT22;16507;51.046;6.406;2023-06-01T05:34:25;10.80;99.90
29575;DHT22;16507;51.046;6.406;2023-06-01T05:36:50;10.90;99.90
29575;DHT22;16507;51.046;6.406;2023-06-01T05:39:16;10.90;99.90
29575;DHT22;16507;51.046;6.406;2023-06-01T05:41:42;10.90;99.90
29575;DHT22;16507;51.046;6.406;2023-06-01T05:44:07;10.90;99.90
29575;DHT22;16507;51.046;6.406;2023-06-01T05:46:33;11.00;99.90
29575;DHT22;16507;51.046;6.406;2023-06-01T05:48:59;11.00;99.90
29575;DHT22;16507;51.046;6.406;2023-06-01T05:51:25;11.00;99.90
29575;DHT22;16507;51.046;6.406;2023-06-01T05:53:51;11.00;99.90
29575;DHT22;16507;51.046;6.406;2023-06-01T05:56:16;10.80;99.90
29575;DHT22;16507;51.046;6.406;2023-06-01T05:58:43;10.80;99.90
29575;DHT22;16507;51.046;6.406;2023-06-01T06:01:08;10.80;99.90
29575;DHT22;16507;51.046;6.406;2023-06-01T06:03:35;11.00;99.90
29575;DHT22;16507;51.046;6.406;2023-06-01T06:06:02;11.00;99.90
29575;DHT22;16507;51.046;6.406;2023-06-01T06:08:27;11.00;99.90
29575;DHT22;16507;51.046;6.406;2023-06-01T06:10:53;10.90;99.90
29575;DHT22;16507;51.046;6.406;2023-06-01T06:13:19;11.00;99.90
29575;DHT22;16507;51.046;6.406;2023-06-01T06:15:45;10.90;99.90
29575;DHT22;16507;51.046;6.406;2023-06-01T06:18:10;11.10;99.90
29575;DHT22;16507;51.046;6.406;2023-06-01T06:20:36;11.10;99.90
29575;DHT22;16507;51.046;6.406;2023-06-01T06:23:01;11.00;99.90
29575;DHT22;16507;51.046;6.406;2023-06-01T06:25:27;11.00;99.90
29575;DHT22;16507;51.046;6.406;2023-06-01T06:27:53;11.00;99.90
29575;DHT22;16507;51.046;6.406;2023-06-01T06:30:18;11.00;99.90
29575;DHT22;16507;51.046;6.406;2023-06-01T06:32:44;11.10;99.90
29575;DHT22;16507;51.046;6.406;2023-06-01T06:35:10;11.20;99.90
29575;DHT22;16507;51.046;6.406;2023-06-01T06:37:42;11.10;99.90
29575;DHT22;16507;51.046;6.406;2023-06-01T06:40:09;11.20;99.90
29575;DHT22;16507;51.046;6.406;2023-06-01T06:42:35;11.20;99.90
29575;DHT22;16507;51.046;6.406;2023-06-01T06:45:01;11.30;99.90
29575;DHT22;16507;51.046;6.406;2023-06-01T06:47:27;11.40;99.90
29575;DHT22;16507;51.046;6.406;2023-06-01T06:49:53;11.30;99.90
29575;DHT22;16507;51.046;6.406;2023-06-01T06:52:19;11.40;99.90
29575;DHT22;16507;51.046;6.406;2023-06-01T06:54:44;11.60;99.90
29575;DHT22;16507;51.046;6.406;2023-06-01T06:57:10;11.60;99.90
29575;DHT22;16507;51.046;6.406;2023-06-01T06:59:36;11.70;99.90
29575;DHT22;16507;51.046;6.406;2023-06-01T07:02:02;11.90;99.90
29575;DHT22;16507;51.046;6.406;2023-06-01T07:04:28;12.00;99.90
29575;DHT22;16507;51.046;6.406;2023-06-01T07:06:54;11.80;99.90
29575;DHT22;16507;51.046;6.406;2023-06-01T07:09:20;12.00;99.90
29575;DHT22;16507;51.046;6.406;2023-06-01T07:11:46;12.20;99.90
29575;DHT22;16507;51.046;6.406;2023-06-01T07:14:13;12.30;99.90
29575;DHT22;16507;51.046;6.406;2023-06-01T07:16:39;12.30;99.90
29575;DHT22;16507;51.046;6.406;2023-06-01T07:19:06;12.40;99.90
29575;DHT22;16507;51.046;6.406;2023-06-01T07:21:31;12.50;99.90
29575;DHT22;16507;51.046;6.406;2023-06-01T07:23:58;12.50;99.90
29575;DHT22;16507;51.046;6.406;2023-06-01T07:26:23;12.70;99.90
29575;DHT22;16507;51.046;6.406;2023-06-01T07:28:51;12.70;99.90
29575;DHT22;16507;51.046;6.406;2023-06-01T07:31:19;12.50;99.90
29575;DHT22;16507;51.046;6.406;2023-06-01T07:33:45;12.50;99.90
29575;DHT22;16507;51.046;6.406;2023-06-01T07:36:11;12.90;99.90
29575;DHT22;16507;51.046;6.406;2023-06-01T07:38:37;13.10;99.90
29575;DHT22;16507;51.046;6.406;2023-06-01T07:41:03;13.30;28.70
29575;DHT22;16507;51.046;6.406;2023-06-01T07:43:28;13.70;99.90
29575;DHT22;16507;51.046;6.406;2023-06-01T07:45:54;13.80;1.00
29575;DHT22;16507;51.046;6.406;2023-06-01T07:48:20;13.60;1.00
29575;DHT22;16507;51.046;6.406;2023-06-01T07:50:46;13.40;1.00
29575;DHT22;16507;51.046;6.406;2023-06-01T07:53:12;13.60;1.00
29575;DHT22;16507;51.046;6.406;2023-06-01T07:55:38;14.00;1.00
29575;DHT22;16507;51.046;6.406;2023-06-01T07:58:03;14.10;1.00
29575;DHT22;16507;51.046;6.406;2023-06-01T08:00:29;14.20;1.00
29575;DHT22;16507;51.046;6.406;2023-06-01T08:02:55;14.30;1.00
29575;DHT22;16507;51.046;6.406;2023-06-01T08:05:23;14.30;1.00
29575;DHT22;16507;51.046;6.406;2023-06-01T08:07:48;14.10;1.00
29575;DHT22;16507;51.046;6.406;2023-06-01T08:10:14;14.00;1.00
29575;DHT22;16507;51.046;6.406;2023-06-01T08:12:40;14.20;1.00
29575;DHT22;16507;51.046;6.406;2023-06-01T08:15:08;14.20;1.00
29575;DHT22;16507;51.046;6.406;2023-06-01T08:17:34;14.40;1.00
29575;DHT22;16507;51.046;6.406;2023-06-01T08:19:59;14.50;99.90
29575;DHT22;16507;51.046;6.406;2023-06-01T08:22:25;14.70;1.00
29575;DHT22;16507;51.046;6.406;2023-06-01T08:24:51;15.10;1.00
29575;DHT22;16507;51.046;6.406;2023-06-01T08:27:19;15.20;1.00
29575;DHT22;16507;51.046;6.406;2023-06-01T08:29:46;15.10;1.00
29575;DHT22;16507;51.046;6.406;2023-06-01T08:32:13;15.40;99.90
29575;DHT22;16507;51.046;6.406;2023-06-01T08:34:38;15.50;99.90
29575;DHT22;16507;51.046;6.406;2023-06-01T08:37:04;15.30;33.60
29575;DHT22;16507;51.046;6.406;2023-06-01T08:39:30;15.40;1.00
29575;DHT22;16507;51.046;6.406;2023-06-01T08:44:41;16.10;99.90
29575;DHT22;16507;51.046;6.406;2023-06-01T08:47:07;15.80;99.90
29575;DHT22;16507;51.046;6.406;2023-06-01T08:49:34;15.70;1.00
29575;DHT22;16507;51.046;6.406;2023-06-01T08:52:02;15.90;99.90
29575;DHT22;16507;51.046;6.406;2023-06-01T08:54:29;16.00;99.90
29575;DHT22;16507;51.046;6.406;2023-06-01T08:56:59;16.00;99.90
29575;DHT22;16507;51.046;6.406;2023-06-01T08:59:25;15.90;99.90
29575;DHT22;16507;51.046;6.406;2023-06-01T09:01:52;16.40;99.90
29575;DHT22;16507;51.046;6.406;2023-06-01T09:04:18;16.30;1.00
29575;DHT22;16507;51.046;6.406;2023-06-01T09:06:43;16.50;1.00
29575;DHT22;16507;51.046;6.406;2023-06-01T09:09:09;16.40;99.90
29575;DHT22;16507;51.046;6.406;2023-06-01T09:11:38;16.20;1.00
29575;DHT22;16507;51.046;6.406;2023-06-01T09:14:23;16.40;1.00
29575;DHT22;16507;51.046;6.406;2023-06-01T09:16:50;16.40;99.90
29575;DHT22;16507;51.046;6.406;2023-06-01T09:19:19;16.20;1.00
29575;DHT22;16507;51.046;6.406;2023-06-01T09:21:59;16.20;99.90
29575;DHT22;16507;51.046;6.406;2023-06-01T09:24:25;16.30;1.00
29575;DHT22;16507;51.046;6.406;2023-06-01T09:26:58;16.70;1.00
29575;DHT22;16507;51.046;6.406;2023-06-01T09:29:25;16.70;9.30
29575;DHT22;16507;51.046;6.406;2023-06-01T09:31:52;16.70;1.00
29575;DHT22;16507;51.046;6.406;2023-06-01T09:34:19;16.80;99.90
29575;DHT22;16507;51.046;6.406;2023-06-01T09:36:49;16.40;83.40
29575;DHT22;16507;51.046;6.406;2023-06-01T09:39:17;16.60;1.00
29575;DHT22;16507;51.046;6.406;2023-06-01T09:41:57;16.40;99.90
29575;DHT22;16507;51.046;6.406;2023-06-01T09:44:31;17.00;99.90
29575;DHT22;16507;51.046;6.406;2023-06-01T09:47:02;17.00;1.00
29575;DHT22;16507;51.046;6.406;2023-06-01T09:49:33;17.10;1.00
29575;DHT22;16507;51.046;6.406;2023-06-01T09:54:39;17.20;99.90
29575;DHT22;16507;51.046;6.406;2023-06-01T09:57:06;17.50;99.90
29575;DHT22;16507;51.046;6.406;2023-06-01T09:59:46;17.50;99.90
29575;DHT22;16507;51.046;6.406;2023-06-01T10:02:14;17.50;1.00
29575;DHT22;16507;51.046;6.406;2023-06-01T10:04:42;17.40;15.00
29575;DHT22;16507;51.046;6.406;2023-06-01T10:07:12;17.50;99.90
29575;DHT22;16507;51.046;6.406;2023-06-01T10:09:38;17.70;1.00
29575;DHT22;16507;51.046;6.406;2023-06-01T10:12:07;17.60;78.50
29575;DHT22;16507;51.046;6.406;2023-06-01T10:14:33;17.50;1.00
29575;DHT22;16507;51.046;6.406;2023-06-01T10:16:59;17.50;1.00
29575;DHT22;16507;51.046;6.406;2023-06-01T10:19:25;17.80;1.00
29575;DHT22;16507;51.046;6.406;2023-06-01T10:21:52;18.00;44.20
29575;DHT22;16507;51.046;6.406;2023-06-01T10:24:18;18.20;1.00
29575;DHT22;16507;51.046;6.406;2023-06-01T10:27:04;18.20;1.00
29575;DHT22;16507;51.046;6.406;2023-06-01T10:29:32;18.50;99.90
29575;DHT22;16507;51.046;6.406;2023-06-01T10:31:58;17.90;1.00
29575;DHT22;16507;51.046;6.406;2023-06-01T10:34:50;18.00;1.00
29575;DHT22;16507;51.046;6.406;2023-06-01T10:37:16;18.30;1.00
29575;DHT22;16507;51.046;6.406;2023-06-01T10:39:42;18.20;1.00
29575;DHT22;16507;51.046;6.406;2023-06-01T10:44:47;18.60;1.00
29575;DHT22;16507;51.046;6.406;2023-06-01T10:57:35;19.20;1.00
29575;DHT22;16507;51.046;6.406;2023-06-01T11:02:41;19.50;1.00
29575;DHT22;16507;51.046;6.406;2023-06-01T11:07:51;19.40;1.00
29575;DHT22;16507;51.046;6.406;2023-06-01T11:13:21;19.20;1.00
29575;DHT22;16507;51.046;6.406;2023-06-01T11:18:42;19.50;1.00
29575;DHT22;16507;51.046;6.406;2023-06-01T11:21:21;19.40;1.00
29575;DHT22;16507;51.046;6.406;2023-06-01T11:23:49;19.90;1.00
29575;DHT22;16507;51.046;6.406;2023-06-01T11:26:17;20.00;1.00
29575;DHT22;16507;51.046;6.406;2023-06-01T11:28:44;20.00;1.00
29575;DHT22;16507;51.046;6.406;2023-06-01T11:31:14;20.00;1.00
29575;DHT22;16507;51.046;6.406;2023-06-01T11:33:49;20.00;1.00
29575;DHT22;16507;51.046;6.406;2023-06-01T11:36:23;20.10;1.00
29575;DHT22;16507;51.046;6.406;2023-06-01T11:38:55;20.20;1.00
29575;DHT22;16507;51.046;6.406;2023-06-01T11:41:21;20.30;1.00
29575;DHT22;16507;51.046;6.406;2023-06-01T11:43:55;20.30;1.00
29575;DHT22;16507;51.046;6.406;2023-06-01T11:46:21;20.80;1.00
29575;DHT22;16507;51.046;6.406;2023-06-01T11:49:04;20.70;1.00
29575;DHT22;16507;51.046;6.406;2023-06-01T11:51:31;20.60;1.00
29575;DHT22;16507;51.046;6.406;2023-06-01T11:54:00;20.60;1.00
29575;DHT22;16507;51.046;6.406;2023-06-01T11:56:36;20.40;1.00
29575;DHT22;16507;51.046;6.406;2023-06-01T11:59:05;20.30;1.00
29575;DHT22;16507;51.046;6.406;2023-06-01T12:01:43;20.30;1.00
29575;DHT22;16507;51.046;6.406;2023-06-01T12:06:39;21.00;1.00
29575;DHT22;16507;51.046;6.406;2023-06-01T12:09:05;20.90;1.00
29575;DHT22;16507;51.046;6.406;2023-06-01T12:11:32;20.50;1.00
29575;DHT22;16507;51.046;6.406;2023-06-01T12:13:59;20.50;99.90
29575;DHT22;16507;51.046;6.406;2023-06-01T12:16:55;20.90;1.00
29575;DHT22;16507;51.046;6.406;2023-06-01T12:19:25;20.80;1.00
29575;DHT22;16507;51.046;6.406;2023-06-01T12:21:53;20.80;1.00
29575;DHT22;16507;51.046;6.406;2023-06-01T12:24:28;20.80;1.00
29575;DHT22;16507;51.046;6.406;2023-06-01T12:26:55;21.00;1.00
29575;DHT22;16507;51.046;6.406;2023-06-01T12:29:36;21.30;1.00
29575;DHT22;16507;51.046;6.406;2023-06-01T12:32:04;21.40;1.00
29575;DHT22;16507;51.046;6.406;2023-06-01T12:34:29;21.10;1.00
29575;DHT22;16507;51.046;6.406;2023-06-01T12:36:55;21.20;1.00
29575;DHT22;16507;51.046;6.406;2023-06-01T12:39:34;21.40;1.00
29575;DHT22;16507;51.046;6.406;2023-06-01T12:42:02;21.10;1.00
29575;DHT22;16507;51.046;6.406;2023-06-01T12:44:29;21.10;1.00
29575;DHT22;16507;51.046;6.406;2023-06-01T12:46:59;20.80;1.00
29575;DHT22;16507;51.046;6.406;2023-06-01T12:49:26;21.60;1.00
29575;DHT22;16507;51.046;6.406;2023-06-01T12:51:54;21.50;99.90
29575;DHT22;16507;51.046;6.406;2023-06-01T12:54:20;21.80;1.00
29575;DHT22;16507;51.046;6.406;2023-06-01T12:56:49;21.60;99.90
29575;DHT22;16507;51.046;6.406;2023-06-01T12:59:15;22.20;99.90
29575;DHT22;16507;51.046;6.406;2023-06-01T13:01:40;21.80;99.90
29575;DHT22;16507;51.046;6.406;2023-06-01T13:04:06;22.50;1.00
29575;DHT22;16507;51.046;6.406;2023-06-01T13:06:33;24.00;99.90
29575;DHT22;16507;51.046;6.406;2023-06-01T13:09:00;24.50;99.90
29575;DHT22;16507;51.046;6.406;2023-06-01T13:11:26;25.70;99.90
29575;DHT22;16507;51.046;6.406;2023-06-01T13:13:52;25.80;99.90
29575;DHT22;16507;51.046;6.406;2023-06-01T13:16:19;26.10;99.90
29575;DHT22;16507;51.046;6.406;2023-06-01T13:18:45;25.40;99.90
29575;DHT22;16507;51.046;6.406;2023-06-01T13:21:13;24.30;99.90
29575;DHT22;16507;51.046;6.406;2023-06-01T13:23:38;23.50;99.90
29575;DHT22;16507;51.046;6.406;2023-06-01T13:26:04;23.60;99.90
29575;DHT22;16507;51.046;6.406;2023-06-01T13:28:30;23.40;99.90
29575;DHT22;16507;51.046;6.406;2023-06-01T13:30:56;23.90;99.90
29575;DHT22;16507;51.046;6.406;2023-06-01T13:33:22;23.30;99.90
29575;DHT22;16507;51.046;6.406;2023-06-01T13:35:47;22.70;99.90
29575;DHT22;16507;51.046;6.406;2023-06-01T13:38:13;22.60;99.90
29575;DHT22;16507;51.046;6.406;2023-06-01T13:40:39;22.60;99.90
29575;DHT22;16507;51.046;6.406;2023-06-01T13:43:05;22.20;99.90
29575;DHT22;16507;51.046;6.406;2023-06-01T13:45:31;22.50;99.90
29575;DHT22;16507;51.046;6.406;2023-06-01T13:47:56;22.30;99.90
29575;DHT22;16507;51.046;6.406;2023-06-01T13:50:24;22.40;99.90
29575;DHT22;16507;51.046;6.406;2023-06-01T13:52:50;22.30;99.90
29575;DHT22;16507;51.046;6.406;2023-06-01T13:55:15;22.40;99.90
29575;DHT22;16507;51.046;6.406;2023-06-01T13:57:41;22.40;99.90
29575;DHT22;16507;51.046;6.406;2023-06-01T14:00:07;22.50;99.90
29575;DHT22;16507;51.046;6.406;2023-06-01T14:02:34;22.30;99.90
29575;DHT22;16507;51.046;6.406;2023-06-01T14:05:00;22.40;99.90
29575;DHT22;16507;51.046;6.406;2023-06-01T14:07:26;22.40;99.90
29575;DHT22;16507;51.046;6.406;2023-06-01T14:09:52;22.20;99.90
29575;DHT22;16507;51.046;6.406;2023-06-01T14:12:18;22.00;99.90
29575;DHT22;16507;51.046;6.406;2023-06-01T14:14:43;22.20;99.90
29575;DHT22;16507;51.046;6.406;2023-06-01T14:17:09;22.40;99.90
29575;DHT22;16507;51.046;6.406;2023-06-01T14:19:37;22.00;99.90
29575;DHT22;16507;51.046;6.406;2023-06-01T14:22:03;22.00;99.90
29575;DHT22;16507;51.046;6.406;2023-06-01T14:24:29;22.10;99.90
29575;DHT22;16507;51.046;6.406;2023-06-01T14:26:54;22.60;99.90
29575;DHT22;16507;51.046;6.406;2023-06-01T14:29:20;22.80;99.90
29575;DHT22;16507;51.046;6.406;2023-06-01T14:31:45;22.30;99.90
29575;DHT22;16507;51.046;6.406;2023-06-01T14:34:11;22.30;99.90
29575;DHT22;16507;51.046;6.406;2023-06-01T14:36:37;22.00;99.90
29575;DHT22;16507;51.046;6.406;2023-06-01T14:39:03;21.90;99.90
29575;DHT22;16507;51.046;6.406;2023-06-01T14:41:28;22.30;99.90
29575;DHT22;16507;51.046;6.406;2023-06-01T14:43:54;22.20;99.90
29575;DHT22;16507;51.046;6.406;2023-06-01T14:46:20;22.60;99.90
29575;DHT22;16507;51.046;6.406;2023-06-01T14:48:46;22.60;99.90
29575;DHT22;16507;51.046;6.406;2023-06-01T14:51:12;21.90;99.90
29575;DHT22;16507;51.046;6.406;2023-06-01T14:53:37;22.00;99.90
29575;DHT22;16507;51.046;6.406;2023-06-01T14:56:05;22.20;99.90
29575;DHT22;16507;51.046;6.406;2023-06-01T14:58:31;22.10;99.90
29575;DHT22;16507;51.046;6.406;2023-06-01T15:00:56;22.40;99.90
29575;DHT22;16507;51.046;6.406;2023-06-01T15:03:23;22.30;99.90
29575;DHT22;16507;51.046;6.406;2023-06-01T15:05:48;22.50;99.90
29575;DHT22;16507;51.046;6.406;2023-06-01T15:08:15;22.40;99.90
29575;DHT22;16507;51.046;6.406;2023-06-01T15:10:41;22.60;99.90
29575;DHT22;16507;51.046;6.406;2023-06-01T15:13:06;23.10;99.90
29575;DHT22;16507;51.046;6.406;2023-06-01T15:15:32;23.00;99.90
29575;DHT22;16507;51.046;6.406;2023-06-01T15:17:57;23.00;99.90
29575;DHT22;16507;51.046;6.406;2023-06-01T15:20:23;22.70;99.90
29575;DHT22;16507;51.046;6.406;2023-06-01T15:22:49;22.10;99.90
29575;DHT22;16507;51.046;6.406;2023-06-01T15:25:14;22.50;99.90
29575;DHT22;16507;51.046;6.406;2023-06-01T15:27:40;22.40;99.90
29575;DHT22;16507;51.046;6.406;2023-06-01T15:30:06;22.30;99.90
29575;DHT22;16507;51.046;6.406;2023-06-01T15:32:32;22.20;99.90
29575;DHT22;16507;51.046;6.406;2023-06-01T15:34:57;22.80;99.90
29575;DHT22;16507;51.046;6.406;2023-06-01T15:37:23;23.10;99.90
29575;DHT22;16507;51.046;6.406;2023-06-01T15:39:49;22.30;99.90
29575;DHT22;16507;51.046;6.406;2023-06-01T15:42:14;22.40;99.90
29575;DHT22;16507;51.046;6.406;2023-06-01T15:44:41;21.60;99.90
29575;DHT22;16507;51.046;6.406;2023-06-01T15:47:08;22.10;99.90
29575;DHT22;16507;51.046;6.406;2023-06-01T15:49:34;22.40;99.90
29575;DHT22;16507;51.046;6.406;2023-06-01T15:51:59;21.90;99.90
29575;DHT22;16507;51.046;6.406;2023-06-01T15:54:26;22.40;99.90
29575;DHT22;16507;51.046;6.406;2023-06-01T15:56:52;22.40;99.90
29575;DHT22;16507;51.046;6.406;2023-06-01T15:59:17;21.90;99.90
29575;DHT22;16507;51.046;6.406;2023-06-01T16:01:43;22.50;99.90
29575;DHT22;16507;51.046;6.406;2023-06-01T16:04:09;22.60;99.90
29575;DHT22;16507;51.046;6.406;2023-06-01T16:06:34;22.30;99.90
29575;DHT22;16507;51.046;6.406;2023-06-01T16:09:00;22.50;99.90
29575;DHT22;16507;51.046;6.406;2023-06-01T16:11:26;22.50;99.90
29575;DHT22;16507;51.046;6.406;2023-06-01T16:13:52;22.20;99.90
29575;DHT22;16507;51.046;6.406;2023-06-01T16:16:17;21.80;99.90
29575;DHT22;16507;51.046;6.406;2023-06-01T16:18:44;22.10;99.90